sensor_id;sensor_type;location;lat;lon;timestamp;P1;durP1;ratioP1;P2;durP2;ratioP2
3779;SDS011;1905;52.482;9.802;2023-08-12T00:01:01;14.23;;;4.43;;
3779;SDS011;1905;52.482;9.802;2023-08-12T00:03:29;11.43;;;3.40;;
3779;SDS011;1905;52.482;9.802;2023-08-12T00:05:58;10.70;;;3.07;;
3779;SDS011;1905;52.482;9.802;2023-08-12T00:08:28;17.60;;;4.33;;
3779;SDS011;1905;52.482;9.802;2023-08-12T00:10:56;10.17;;;3.80;;
3779;SDS011;1905;52.482;9.802;2023-08-12T00:13:24;11.70;;;4.70;;
3779;SDS011;1905;52.482;9.802;2023-08-12T00:15:52;12.80;;;4.40;;
3779;SDS011;1905;52.482;9.802;2023-08-12T00:18:21;11.13;;;3.50;;
3779;SDS011;1905;52.482;9.802;2023-08-12T00:20:49;11.80;;;4.13;;
3779;SDS011;1905;52.482;9.802;2023-08-12T00:23:19;11.90;;;3.87;;
3779;SDS011;1905;52.482;9.802;2023-08-12T00:25:48;8.83;;;4.27;;
3779;SDS011;1905;52.482;9.802;2023-08-12T00:28:16;10.93;;;4.03;;
3779;SDS011;1905;52.482;9.802;2023-08-12T00:30:47;11.90;;;3.90;;
3779;SDS011;1905;52.482;9.802;2023-08-12T00:33:15;12.80;;;4.60;;
3779;SDS011;1905;52.482;9.802;2023-08-12T00:35:44;12.60;;;3.80;;
3779;SDS011;1905;52.482;9.802;2023-08-12T00:38:12;13.40;;;4.20;;
3779;SDS011;1905;52.482;9.802;2023-08-12T00:40:41;10.23;;;5.07;;
3779;SDS011;1905;52.482;9.802;2023-08-12T00:43:10;8.40;;;3.47;;
3779;SDS011;1905;52.482;9.802;2023-08-12T00:45:37;10.07;;;5.17;;
3779;SDS011;1905;52.482;9.802;2023-08-12T00:48:06;12.93;;;4.23;;
3779;SDS011;1905;52.482;9.802;2023-08-12T00:50:39;8.17;;;3.50;;
3779;SDS011;1905;52.482;9.802;2023-08-12T00:53:09;9.67;;;4.20;;
3779;SDS011;1905;52.482;9.802;2023-08-12T00:55:39;9.53;;;3.60;;
3779;SDS011;1905;52.482;9.802;2023-08-12T00:58:08;11.83;;;4.20;;
3779;SDS011;1905;52.482;9.802;2023-08-12T01:00:36;11.73;;;4.40;;
3779;SDS011;1905;52.482;9.802;2023-08-12T01:03:05;9.83;;;4.10;;
3779;SDS011;1905;52.482;9.802;2023-08-12T01:05:33;8.80;;;3.77;;
3779;SDS011;1905;52.482;9.802;2023-08-12T01:08:05;9.53;;;4.30;;
3779;SDS011;1905;52.482;9.802;2023-08-12T01:10:33;11.67;;;4.13;;
3779;SDS011;1905;52.482;9.802;2023-08-12T01:13:07;9.67;;;4.00;;
3779;SDS011;1905;52.482;9.802;2023-08-12T01:15:44;10.10;;;4.73;;
3779;SDS011;1905;52.482;9.802;2023-08-12T01:18:12;10.27;;;4.40;;
3779;SDS011;1905;52.482;9.802;2023-08-12T01:20:42;10.27;;;4.77;;
3779;SDS011;1905;52.482;9.802;2023-08-12T01:23:11;12.27;;;5.40;;
3779;SDS011;1905;52.482;9.802;2023-08-12T01:25:40;10.30;;;4.73;;
3779;SDS011;1905;52.482;9.802;2023-08-12T01:28:08;9.30;;;4.47;;
3779;SDS011;1905;52.482;9.802;2023-08-12T01:33:27;13.83;;;4.90;;
3779;SDS011;1905;52.482;9.802;2023-08-12T01:36:03;10.03;;;4.00;;
3779;SDS011;1905;52.482;9.802;2023-08-12T01:38:36;10.10;;;4.20;;
3779;SDS011;1905;52.482;9.802;2023-08-12T01:41:07;12.00;;;4.60;;
3779;SDS011;1905;52.482;9.802;2023-08-12T01:43:37;12.07;;;4.93;;
3779;SDS011;1905;52.482;9.802;2023-08-12T01:46:05;11.80;;;5.63;;
3779;SDS011;1905;52.482;9.802;2023-08-12T01:48:35;11.50;;;5.10;;
3779;SDS011;1905;52.482;9.802;2023-08-12T01:51:03;10.93;;;4.30;;
3779;SDS011;1905;52.482;9.802;2023-08-12T01:53:31;15.07;;;5.50;;
3779;SDS011;1905;52.482;9.802;2023-08-12T01:56:00;9.80;;;4.50;;
3779;SDS011;1905;52.482;9.802;2023-08-12T01:58:28;9.17;;;4.30;;
3779;SDS011;1905;52.482;9.802;2023-08-12T02:00:56;9.40;;;4.73;;
3779;SDS011;1905;52.482;9.802;2023-08-12T02:03:24;9.90;;;4.70;;
3779;SDS011;1905;52.482;9.802;2023-08-12T02:05:51;9.70;;;4.27;;
3779;SDS011;1905;52.482;9.802;2023-08-12T02:08:20;8.97;;;4.10;;
3779;SDS011;1905;52.482;9.802;2023-08-12T02:10:49;12.60;;;4.47;;
3779;SDS011;1905;52.482;9.802;2023-08-12T02:13:18;9.00;;;4.27;;
3779;SDS011;1905;52.482;9.802;2023-08-12T02:15:46;12.30;;;5.00;;
3779;SDS011;1905;52.482;9.802;2023-08-12T02:18:14;11.80;;;4.27;;
3779;SDS011;1905;52.482;9.802;2023-08-12T02:20:42;14.03;;;5.10;;
3779;SDS011;1905;52.482;9.802;2023-08-12T02:23:10;9.57;;;4.27;;
3779;SDS011;1905;52.482;9.802;2023-08-12T02:25:38;17.03;;;4.27;;
3779;SDS011;1905;52.482;9.802;2023-08-12T02:28:06;10.93;;;4.50;;
3779;SDS011;1905;52.482;9.802;2023-08-12T02:30:35;10.87;;;4.50;;
3779;SDS011;1905;52.482;9.802;2023-08-12T02:33:04;15.03;;;4.90;;
3779;SDS011;1905;52.482;9.802;2023-08-12T02:35:33;10.67;;;4.13;;
3779;SDS011;1905;52.482;9.802;2023-08-12T02:38:03;9.50;;;4.10;;
3779;SDS011;1905;52.482;9.802;2023-08-12T02:40:31;10.50;;;4.63;;
3779;SDS011;1905;52.482;9.802;2023-08-12T02:42:58;11.43;;;5.10;;
3779;SDS011;1905;52.482;9.802;2023-08-12T02:45:26;11.10;;;4.30;;
3779;SDS011;1905;52.482;9.802;2023-08-12T02:47:55;9.43;;;4.80;;
3779;SDS011;1905;52.482;9.802;2023-08-12T02:50:23;9.57;;;4.80;;
3779;SDS011;1905;52.482;9.802;2023-08-12T02:52:51;12.07;;;4.60;;
3779;SDS011;1905;52.482;9.802;2023-08-12T02:55:18;14.13;;;5.50;;
3779;SDS011;1905;52.482;9.802;2023-08-12T02:57:46;11.67;;;5.00;;
3779;SDS011;1905;52.482;9.802;2023-08-12T03:00:14;12.67;;;5.43;;
3779;SDS011;1905;52.482;9.802;2023-08-12T03:02:42;11.13;;;5.00;;
3779;SDS011;1905;52.482;9.802;2023-08-12T03:05:12;11.40;;;4.90;;
3779;SDS011;1905;52.482;9.802;2023-08-12T03:07:39;10.73;;;4.37;;
3779;SDS011;1905;52.482;9.802;2023-08-12T03:10:07;12.03;;;5.10;;
3779;SDS011;1905;52.482;9.802;2023-08-12T03:12:35;10.70;;;5.23;;
3779;SDS011;1905;52.482;9.802;2023-08-12T03:15:03;10.53;;;4.40;;
3779;SDS011;1905;52.482;9.802;2023-08-12T03:17:32;8.80;;;4.43;;
3779;SDS011;1905;52.482;9.802;2023-08-12T03:20:01;12.50;;;5.13;;
3779;SDS011;1905;52.482;9.802;2023-08-12T03:22:33;12.90;;;4.93;;
3779;SDS011;1905;52.482;9.802;2023-08-12T03:25:01;9.60;;;4.77;;
3779;SDS011;1905;52.482;9.802;2023-08-12T03:27:29;11.23;;;4.80;;
3779;SDS011;1905;52.482;9.802;2023-08-12T03:29:57;11.40;;;5.67;;
3779;SDS011;1905;52.482;9.802;2023-08-12T03:32:25;10.33;;;4.93;;
3779;SDS011;1905;52.482;9.802;2023-08-12T03:34:54;11.07;;;5.17;;
3779;SDS011;1905;52.482;9.802;2023-08-12T03:37:22;10.50;;;6.00;;
3779;SDS011;1905;52.482;9.802;2023-08-12T03:39:53;10.83;;;5.03;;
3779;SDS011;1905;52.482;9.802;2023-08-12T03:42:21;12.20;;;5.20;;
3779;SDS011;1905;52.482;9.802;2023-08-12T03:44:49;14.67;;;5.23;;
3779;SDS011;1905;52.482;9.802;2023-08-12T03:47:17;10.10;;;4.60;;
3779;SDS011;1905;52.482;9.802;2023-08-12T03:49:48;9.33;;;4.90;;
3779;SDS011;1905;52.482;9.802;2023-08-12T03:52:16;12.50;;;5.40;;
3779;SDS011;1905;52.482;9.802;2023-08-12T03:54:43;12.70;;;4.40;;
3779;SDS011;1905;52.482;9.802;2023-08-12T03:57:13;13.40;;;5.17;;
3779;SDS011;1905;52.482;9.802;2023-08-12T03:59:42;13.40;;;5.37;;
3779;SDS011;1905;52.482;9.802;2023-08-12T04:02:10;14.37;;;5.93;;
3779;SDS011;1905;52.482;9.802;2023-08-12T04:04:37;11.93;;;5.87;;
3779;SDS011;1905;52.482;9.802;2023-08-12T04:07:05;13.33;;;5.70;;
3779;SDS011;1905;52.482;9.802;2023-08-12T04:09:33;11.30;;;6.00;;
3779;SDS011;1905;52.482;9.802;2023-08-12T04:12:01;11.50;;;6.10;;
3779;SDS011;1905;52.482;9.802;2023-08-12T04:14:31;8.80;;;4.80;;
3779;SDS011;1905;52.482;9.802;2023-08-12T04:16:59;12.23;;;6.50;;
3779;SDS011;1905;52.482;9.802;2023-08-12T04:19:27;15.13;;;6.70;;
3779;SDS011;1905;52.482;9.802;2023-08-12T04:21:55;11.23;;;5.80;;
3779;SDS011;1905;52.482;9.802;2023-08-12T04:24:23;11.23;;;4.70;;
3779;SDS011;1905;52.482;9.802;2023-08-12T04:26:51;11.63;;;5.60;;
3779;SDS011;1905;52.482;9.802;2023-08-12T04:29:18;10.90;;;5.67;;
3779;SDS011;1905;52.482;9.802;2023-08-12T04:31:48;12.87;;;6.50;;
3779;SDS011;1905;52.482;9.802;2023-08-12T04:34:16;13.53;;;6.23;;
3779;SDS011;1905;52.482;9.802;2023-08-12T04:36:44;12.53;;;6.67;;
3779;SDS011;1905;52.482;9.802;2023-08-12T04:39:12;12.80;;;6.60;;
3779;SDS011;1905;52.482;9.802;2023-08-12T04:41:41;13.03;;;7.03;;
3779;SDS011;1905;52.482;9.802;2023-08-12T04:44:10;14.20;;;6.87;;
3779;SDS011;1905;52.482;9.802;2023-08-12T04:46:38;13.87;;;6.00;;
3779;SDS011;1905;52.482;9.802;2023-08-12T04:49:07;13.90;;;7.00;;
3779;SDS011;1905;52.482;9.802;2023-08-12T04:51:35;20.70;;;8.70;;
3779;SDS011;1905;52.482;9.802;2023-08-12T04:54:03;14.23;;;7.80;;
3779;SDS011;1905;52.482;9.802;2023-08-12T04:56:32;23.40;;;8.13;;
3779;SDS011;1905;52.482;9.802;2023-08-12T04:59:00;16.60;;;9.33;;
3779;SDS011;1905;52.482;9.802;2023-08-12T05:01:29;13.40;;;7.80;;
3779;SDS011;1905;52.482;9.802;2023-08-12T05:03:57;15.33;;;8.53;;
3779;SDS011;1905;52.482;9.802;2023-08-12T05:06:27;13.70;;;8.07;;
3779;SDS011;1905;52.482;9.802;2023-08-12T05:08:56;16.40;;;8.40;;
3779;SDS011;1905;52.482;9.802;2023-08-12T05:11:24;14.87;;;7.73;;
3779;SDS011;1905;52.482;9.802;2023-08-12T05:13:52;14.67;;;9.13;;
3779;SDS011;1905;52.482;9.802;2023-08-12T05:16:20;16.73;;;9.90;;
3779;SDS011;1905;52.482;9.802;2023-08-12T05:18:48;18.60;;;9.50;;
3779;SDS011;1905;52.482;9.802;2023-08-12T05:21:16;17.83;;;9.53;;
3779;SDS011;1905;52.482;9.802;2023-08-12T05:23:45;14.47;;;8.20;;
3779;SDS011;1905;52.482;9.802;2023-08-12T05:26:13;14.50;;;9.40;;
3779;SDS011;1905;52.482;9.802;2023-08-12T05:28:41;15.67;;;8.30;;
3779;SDS011;1905;52.482;9.802;2023-08-12T05:31:09;17.67;;;9.73;;
3779;SDS011;1905;52.482;9.802;2023-08-12T05:33:37;16.87;;;9.17;;
3779;SDS011;1905;52.482;9.802;2023-08-12T05:36:05;17.40;;;9.53;;
3779;SDS011;1905;52.482;9.802;2023-08-12T05:38:32;15.70;;;10.00;;
3779;SDS011;1905;52.482;9.802;2023-08-12T05:41:03;16.40;;;9.50;;
3779;SDS011;1905;52.482;9.802;2023-08-12T05:43:33;18.23;;;9.77;;
3779;SDS011;1905;52.482;9.802;2023-08-12T05:46:01;18.70;;;11.10;;
3779;SDS011;1905;52.482;9.802;2023-08-12T05:48:29;19.43;;;11.07;;
3779;SDS011;1905;52.482;9.802;2023-08-12T05:50:57;18.60;;;11.37;;
3779;SDS011;1905;52.482;9.802;2023-08-12T05:53:25;20.87;;;9.80;;
3779;SDS011;1905;52.482;9.802;2023-08-12T05:55:53;19.40;;;10.37;;
3779;SDS011;1905;52.482;9.802;2023-08-12T05:58:22;17.10;;;8.70;;
3779;SDS011;1905;52.482;9.802;2023-08-12T06:00:50;17.40;;;9.90;;
3779;SDS011;1905;52.482;9.802;2023-08-12T06:03:17;24.03;;;10.53;;
3779;SDS011;1905;52.482;9.802;2023-08-12T06:05:46;20.03;;;10.60;;
3779;SDS011;1905;52.482;9.802;2023-08-12T06:08:14;28.57;;;12.13;;
3779;SDS011;1905;52.482;9.802;2023-08-12T06:10:42;22.70;;;11.63;;
3779;SDS011;1905;52.482;9.802;2023-08-12T06:13:10;19.03;;;11.00;;
3779;SDS011;1905;52.482;9.802;2023-08-12T06:15:39;21.10;;;10.40;;
3779;SDS011;1905;52.482;9.802;2023-08-12T06:18:07;22.70;;;12.33;;
3779;SDS011;1905;52.482;9.802;2023-08-12T06:20:35;24.27;;;11.00;;
3779;SDS011;1905;52.482;9.802;2023-08-12T06:23:03;23.60;;;12.60;;
3779;SDS011;1905;52.482;9.802;2023-08-12T06:25:31;18.90;;;10.10;;
3779;SDS011;1905;52.482;9.802;2023-08-12T06:27:59;22.00;;;12.13;;
3779;SDS011;1905;52.482;9.802;2023-08-12T06:30:28;20.90;;;12.17;;
3779;SDS011;1905;52.482;9.802;2023-08-12T06:32:57;20.40;;;12.67;;
3779;SDS011;1905;52.482;9.802;2023-08-12T06:35:25;16.80;;;9.30;;
3779;SDS011;1905;52.482;9.802;2023-08-12T06:37:53;21.10;;;10.83;;
3779;SDS011;1905;52.482;9.802;2023-08-12T06:40:21;18.57;;;11.33;;
3779;SDS011;1905;52.482;9.802;2023-08-12T06:42:48;21.63;;;10.07;;
3779;SDS011;1905;52.482;9.802;2023-08-12T06:45:16;21.03;;;12.40;;
3779;SDS011;1905;52.482;9.802;2023-08-12T06:47:45;24.10;;;12.00;;
3779;SDS011;1905;52.482;9.802;2023-08-12T06:50:15;21.87;;;12.60;;
3779;SDS011;1905;52.482;9.802;2023-08-12T06:52:43;21.77;;;12.37;;
3779;SDS011;1905;52.482;9.802;2023-08-12T06:55:11;21.03;;;12.40;;
3779;SDS011;1905;52.482;9.802;2023-08-12T06:57:38;19.77;;;11.70;;
3779;SDS011;1905;52.482;9.802;2023-08-12T07:00:06;24.63;;;12.90;;
3779;SDS011;1905;52.482;9.802;2023-08-12T07:02:35;23.23;;;12.73;;
3779;SDS011;1905;52.482;9.802;2023-08-12T07:05:03;23.03;;;12.23;;
3779;SDS011;1905;52.482;9.802;2023-08-12T07:07:33;24.03;;;11.93;;
3779;SDS011;1905;52.482;9.802;2023-08-12T07:10:01;18.47;;;11.40;;
3779;SDS011;1905;52.482;9.802;2023-08-12T07:12:29;19.77;;;10.30;;
3779;SDS011;1905;52.482;9.802;2023-08-12T07:14:57;22.47;;;10.63;;
3779;SDS011;1905;52.482;9.802;2023-08-12T07:17:25;23.53;;;11.70;;
3779;SDS011;1905;52.482;9.802;2023-08-12T07:19:53;21.30;;;11.80;;
3779;SDS011;1905;52.482;9.802;2023-08-12T07:22:22;19.97;;;12.10;;
3779;SDS011;1905;52.482;9.802;2023-08-12T07:24:51;22.20;;;10.73;;
3779;SDS011;1905;52.482;9.802;2023-08-12T07:27:19;20.30;;;10.40;;
3779;SDS011;1905;52.482;9.802;2023-08-12T07:29:46;20.73;;;11.50;;
3779;SDS011;1905;52.482;9.802;2023-08-12T07:32:14;16.23;;;9.70;;
3779;SDS011;1905;52.482;9.802;2023-08-12T07:34:43;23.07;;;9.80;;
3779;SDS011;1905;52.482;9.802;2023-08-12T07:37:10;20.43;;;10.83;;
3779;SDS011;1905;52.482;9.802;2023-08-12T07:39:38;20.73;;;10.03;;
3779;SDS011;1905;52.482;9.802;2023-08-12T07:42:08;19.30;;;9.30;;
3779;SDS011;1905;52.482;9.802;2023-08-12T07:44:36;25.67;;;10.40;;
3779;SDS011;1905;52.482;9.802;2023-08-12T07:47:04;17.43;;;10.13;;
3779;SDS011;1905;52.482;9.802;2023-08-12T07:49:32;18.33;;;9.13;;
3779;SDS011;1905;52.482;9.802;2023-08-12T07:52:00;17.30;;;9.00;;
3779;SDS011;1905;52.482;9.802;2023-08-12T07:54:28;18.20;;;10.50;;
3779;SDS011;1905;52.482;9.802;2023-08-12T07:56:56;16.43;;;8.80;;
3779;SDS011;1905;52.482;9.802;2023-08-12T07:59:25;16.67;;;9.47;;
3779;SDS011;1905;52.482;9.802;2023-08-12T08:01:53;16.50;;;8.47;;
3779;SDS011;1905;52.482;9.802;2023-08-12T08:04:23;15.47;;;8.70;;
3779;SDS011;1905;52.482;9.802;2023-08-12T08:06:52;17.90;;;8.20;;
3779;SDS011;1905;52.482;9.802;2023-08-12T08:09:19;17.77;;;8.40;;
3779;SDS011;1905;52.482;9.802;2023-08-12T08:11:47;18.90;;;7.90;;
3779;SDS011;1905;52.482;9.802;2023-08-12T08:14:15;22.10;;;9.37;;
3779;SDS011;1905;52.482;9.802;2023-08-12T08:16:44;18.50;;;7.47;;
3779;SDS011;1905;52.482;9.802;2023-08-12T08:19:12;16.47;;;7.00;;
3779;SDS011;1905;52.482;9.802;2023-08-12T08:21:40;15.93;;;7.13;;
3779;SDS011;1905;52.482;9.802;2023-08-12T08:24:08;18.40;;;8.77;;
3779;SDS011;1905;52.482;9.802;2023-08-12T08:26:37;14.50;;;7.53;;
3779;SDS011;1905;52.482;9.802;2023-08-12T08:29:05;18.40;;;7.37;;
3779;SDS011;1905;52.482;9.802;2023-08-12T08:31:33;15.50;;;8.63;;
3779;SDS011;1905;52.482;9.802;2023-08-12T08:34:03;18.93;;;8.50;;
3779;SDS011;1905;52.482;9.802;2023-08-12T08:36:31;16.40;;;8.40;;
3779;SDS011;1905;52.482;9.802;2023-08-12T08:38:59;19.33;;;8.70;;
3779;SDS011;1905;52.482;9.802;2023-08-12T08:41:27;14.23;;;7.30;;
3779;SDS011;1905;52.482;9.802;2023-08-12T08:44:06;16.53;;;10.00;;
3779;SDS011;1905;52.482;9.802;2023-08-12T08:46:35;17.30;;;8.30;;
3779;SDS011;1905;52.482;9.802;2023-08-12T08:49:06;18.03;;;8.27;;
3779;SDS011;1905;52.482;9.802;2023-08-12T08:51:37;18.27;;;7.90;;
3779;SDS011;1905;52.482;9.802;2023-08-12T08:54:05;16.47;;;9.10;;
3779;SDS011;1905;52.482;9.802;2023-08-12T08:56:33;18.33;;;8.00;;
3779;SDS011;1905;52.482;9.802;2023-08-12T08:59:10;16.80;;;7.27;;
3779;SDS011;1905;52.482;9.802;2023-08-12T09:01:40;17.00;;;7.97;;
3779;SDS011;1905;52.482;9.802;2023-08-12T09:04:13;21.53;;;8.50;;
3779;SDS011;1905;52.482;9.802;2023-08-12T09:06:43;16.37;;;7.97;;
3779;SDS011;1905;52.482;9.802;2023-08-12T09:09:12;16.63;;;9.40;;
3779;SDS011;1905;52.482;9.802;2023-08-12T09:11:43;21.67;;;7.87;;
3779;SDS011;1905;52.482;9.802;2023-08-12T09:14:12;15.00;;;7.80;;
3779;SDS011;1905;52.482;9.802;2023-08-12T09:16:41;20.70;;;9.17;;
3779;SDS011;1905;52.482;9.802;2023-08-12T09:19:08;14.83;;;7.93;;
3779;SDS011;1905;52.482;9.802;2023-08-12T09:21:38;16.33;;;7.27;;
3779;SDS011;1905;52.482;9.802;2023-08-12T09:24:07;16.30;;;6.50;;
3779;SDS011;1905;52.482;9.802;2023-08-12T09:26:35;17.67;;;7.77;;
3779;SDS011;1905;52.482;9.802;2023-08-12T09:29:03;12.93;;;7.37;;
3779;SDS011;1905;52.482;9.802;2023-08-12T09:31:31;17.30;;;7.10;;
3779;SDS011;1905;52.482;9.802;2023-08-12T09:34:00;13.83;;;6.97;;
3779;SDS011;1905;52.482;9.802;2023-08-12T09:36:33;13.23;;;6.53;;
3779;SDS011;1905;52.482;9.802;2023-08-12T09:39:07;18.70;;;7.37;;
3779;SDS011;1905;52.482;9.802;2023-08-12T09:41:37;15.90;;;6.60;;
3779;SDS011;1905;52.482;9.802;2023-08-12T09:44:15;15.73;;;7.87;;
3779;SDS011;1905;52.482;9.802;2023-08-12T09:46:43;14.40;;;7.70;;
3779;SDS011;1905;52.482;9.802;2023-08-12T09:49:10;17.47;;;7.93;;
3779;SDS011;1905;52.482;9.802;2023-08-12T09:51:38;19.10;;;7.70;;
3779;SDS011;1905;52.482;9.802;2023-08-12T09:54:09;12.33;;;7.47;;
3779;SDS011;1905;52.482;9.802;2023-08-12T09:56:43;11.83;;;6.10;;
3779;SDS011;1905;52.482;9.802;2023-08-12T09:59:15;14.77;;;7.90;;
3779;SDS011;1905;52.482;9.802;2023-08-12T10:01:45;14.57;;;7.30;;
3779;SDS011;1905;52.482;9.802;2023-08-12T10:04:14;12.67;;;6.27;;
3779;SDS011;1905;52.482;9.802;2023-08-12T10:06:45;13.47;;;6.87;;
3779;SDS011;1905;52.482;9.802;2023-08-12T10:09:15;13.17;;;6.40;;
3779;SDS011;1905;52.482;9.802;2023-08-12T10:11:45;14.43;;;6.90;;
3779;SDS011;1905;52.482;9.802;2023-08-12T10:14:13;12.63;;;6.40;;
3779;SDS011;1905;52.482;9.802;2023-08-12T10:16:45;12.67;;;6.10;;
3779;SDS011;1905;52.482;9.802;2023-08-12T10:19:14;12.20;;;6.00;;
3779;SDS011;1905;52.482;9.802;2023-08-12T10:21:43;14.00;;;6.17;;
3779;SDS011;1905;52.482;9.802;2023-08-12T10:24:11;14.00;;;6.30;;
3779;SDS011;1905;52.482;9.802;2023-08-12T10:26:43;12.80;;;5.50;;
3779;SDS011;1905;52.482;9.802;2023-08-12T10:29:12;13.53;;;5.33;;
3779;SDS011;1905;52.482;9.802;2023-08-12T10:31:40;13.40;;;5.60;;
3779;SDS011;1905;52.482;9.802;2023-08-12T10:34:17;12.17;;;5.70;;
3779;SDS011;1905;52.482;9.802;2023-08-12T10:36:46;17.30;;;6.00;;
3779;SDS011;1905;52.482;9.802;2023-08-12T10:39:27;11.43;;;5.77;;
3779;SDS011;1905;52.482;9.802;2023-08-12T10:41:58;14.60;;;5.63;;
3779;SDS011;1905;52.482;9.802;2023-08-12T10:44:26;13.70;;;5.73;;
3779;SDS011;1905;52.482;9.802;2023-08-12T10:47:05;10.70;;;5.63;;
3779;SDS011;1905;52.482;9.802;2023-08-12T10:49:38;11.10;;;6.00;;
3779;SDS011;1905;52.482;9.802;2023-08-12T10:52:06;11.50;;;5.27;;
3779;SDS011;1905;52.482;9.802;2023-08-12T10:54:53;14.47;;;6.90;;
3779;SDS011;1905;52.482;9.802;2023-08-12T10:57:35;15.10;;;6.00;;
3779;SDS011;1905;52.482;9.802;2023-08-12T11:00:05;12.03;;;5.60;;
3779;SDS011;1905;52.482;9.802;2023-08-12T11:02:39;10.67;;;5.53;;
3779;SDS011;1905;52.482;9.802;2023-08-12T11:05:07;14.40;;;5.97;;
3779;SDS011;1905;52.482;9.802;2023-08-12T11:07:38;10.50;;;5.93;;
3779;SDS011;1905;52.482;9.802;2023-08-12T11:10:10;10.07;;;5.80;;
3779;SDS011;1905;52.482;9.802;2023-08-12T11:12:41;12.10;;;5.63;;
3779;SDS011;1905;52.482;9.802;2023-08-12T11:15:13;10.87;;;6.00;;
3779;SDS011;1905;52.482;9.802;2023-08-12T11:17:41;13.57;;;6.70;;
3779;SDS011;1905;52.482;9.802;2023-08-12T11:20:10;11.07;;;5.90;;
3779;SDS011;1905;52.482;9.802;2023-08-12T11:22:39;11.17;;;5.20;;
3779;SDS011;1905;52.482;9.802;2023-08-12T11:25:08;11.40;;;6.10;;
3779;SDS011;1905;52.482;9.802;2023-08-12T11:27:38;10.17;;;5.53;;
3779;SDS011;1905;52.482;9.802;2023-08-12T11:30:09;11.67;;;5.10;;
3779;SDS011;1905;52.482;9.802;2023-08-12T11:32:38;10.70;;;4.70;;
3779;SDS011;1905;52.482;9.802;2023-08-12T11:35:07;8.67;;;4.57;;
3779;SDS011;1905;52.482;9.802;2023-08-12T11:37:36;9.63;;;5.13;;
3779;SDS011;1905;52.482;9.802;2023-08-12T11:40:06;10.87;;;5.03;;
3779;SDS011;1905;52.482;9.802;2023-08-12T11:42:36;10.10;;;5.03;;
3779;SDS011;1905;52.482;9.802;2023-08-12T11:45:06;10.10;;;4.53;;
3779;SDS011;1905;52.482;9.802;2023-08-12T11:47:34;9.37;;;4.30;;
3779;SDS011;1905;52.482;9.802;2023-08-12T11:50:03;8.30;;;3.70;;
3779;SDS011;1905;52.482;9.802;2023-08-12T11:52:31;9.40;;;5.00;;
3779;SDS011;1905;52.482;9.802;2023-08-12T11:55:00;10.33;;;4.33;;
3779;SDS011;1905;52.482;9.802;2023-08-12T11:57:28;10.43;;;4.60;;
3779;SDS011;1905;52.482;9.802;2023-08-12T11:59:58;11.70;;;5.23;;
3779;SDS011;1905;52.482;9.802;2023-08-12T12:02:27;11.10;;;5.00;;
3779;SDS011;1905;52.482;9.802;2023-08-12T12:04:56;8.67;;;4.43;;
3779;SDS011;1905;52.482;9.802;2023-08-12T12:07:24;8.57;;;4.90;;
3779;SDS011;1905;52.482;9.802;2023-08-12T12:09:53;11.63;;;5.83;;
3779;SDS011;1905;52.482;9.802;2023-08-12T12:12:22;10.10;;;4.70;;
3779;SDS011;1905;52.482;9.802;2023-08-12T12:14:51;10.43;;;5.10;;
3779;SDS011;1905;52.482;9.802;2023-08-12T12:17:20;10.27;;;4.47;;
3779;SDS011;1905;52.482;9.802;2023-08-12T12:19:54;9.37;;;4.97;;
3779;SDS011;1905;52.482;9.802;2023-08-12T12:22:27;10.00;;;4.73;;
3779;SDS011;1905;52.482;9.802;2023-08-12T12:24:57;9.20;;;5.17;;
3779;SDS011;1905;52.482;9.802;2023-08-12T12:27:26;9.03;;;4.77;;
3779;SDS011;1905;52.482;9.802;2023-08-12T12:29:54;8.67;;;4.63;;
3779;SDS011;1905;52.482;9.802;2023-08-12T12:32:22;9.40;;;4.50;;
3779;SDS011;1905;52.482;9.802;2023-08-12T12:34:54;7.83;;;3.83;;
3779;SDS011;1905;52.482;9.802;2023-08-12T12:37:22;7.90;;;3.50;;
3779;SDS011;1905;52.482;9.802;2023-08-12T12:39:50;9.50;;;4.80;;
3779;SDS011;1905;52.482;9.802;2023-08-12T12:42:18;9.10;;;3.97;;
3779;SDS011;1905;52.482;9.802;2023-08-12T12:44:46;8.97;;;3.87;;
3779;SDS011;1905;52.482;9.802;2023-08-12T12:47:14;9.07;;;4.17;;
3779;SDS011;1905;52.482;9.802;2023-08-12T12:49:41;8.67;;;3.57;;
3779;SDS011;1905;52.482;9.802;2023-08-12T12:52:11;7.87;;;3.37;;
3779;SDS011;1905;52.482;9.802;2023-08-12T12:54:39;9.43;;;3.50;;
3779;SDS011;1905;52.482;9.802;2023-08-12T12:57:07;10.20;;;4.30;;
3779;SDS011;1905;52.482;9.802;2023-08-12T12:59:35;8.20;;;3.23;;
3779;SDS011;1905;52.482;9.802;2023-08-12T13:02:03;7.90;;;3.13;;
3779;SDS011;1905;52.482;9.802;2023-08-12T13:04:31;8.23;;;3.87;;
3779;SDS011;1905;52.482;9.802;2023-08-12T13:06:58;7.60;;;3.40;;
3779;SDS011;1905;52.482;9.802;2023-08-12T13:09:35;7.50;;;3.10;;
3779;SDS011;1905;52.482;9.802;2023-08-12T13:12:04;8.23;;;3.37;;
3779;SDS011;1905;52.482;9.802;2023-08-12T13:14:38;6.97;;;2.43;;
3779;SDS011;1905;52.482;9.802;2023-08-12T13:17:06;11.20;;;3.23;;
3779;SDS011;1905;52.482;9.802;2023-08-12T13:19:34;8.30;;;3.00;;
3779;SDS011;1905;52.482;9.802;2023-08-12T13:22:04;6.63;;;2.60;;
3779;SDS011;1905;52.482;9.802;2023-08-12T13:24:32;8.57;;;3.00;;
3779;SDS011;1905;52.482;9.802;2023-08-12T13:27:02;7.97;;;4.30;;
3779;SDS011;1905;52.482;9.802;2023-08-12T13:29:35;7.60;;;3.20;;
3779;SDS011;1905;52.482;9.802;2023-08-12T13:32:05;6.70;;;2.80;;
3779;SDS011;1905;52.482;9.802;2023-08-12T13:34:32;7.43;;;2.73;;
3779;SDS011;1905;52.482;9.802;2023-08-12T13:37:03;6.90;;;2.80;;
3779;SDS011;1905;52.482;9.802;2023-08-12T13:39:32;6.73;;;2.23;;
3779;SDS011;1905;52.482;9.802;2023-08-12T13:42:29;8.23;;;3.37;;
3779;SDS011;1905;52.482;9.802;2023-08-12T13:44:57;7.10;;;2.33;;
3779;SDS011;1905;52.482;9.802;2023-08-12T13:47:27;7.70;;;2.80;;
3779;SDS011;1905;52.482;9.802;2023-08-12T13:49:54;7.30;;;2.30;;
3779;SDS011;1905;52.482;9.802;2023-08-12T13:52:23;9.80;;;2.53;;
3779;SDS011;1905;52.482;9.802;2023-08-12T13:55:04;6.80;;;1.90;;
3779;SDS011;1905;52.482;9.802;2023-08-12T13:57:34;6.20;;;1.93;;
3779;SDS011;1905;52.482;9.802;2023-08-12T14:00:05;9.57;;;2.33;;
3779;SDS011;1905;52.482;9.802;2023-08-12T14:02:41;6.00;;;1.73;;
3779;SDS011;1905;52.482;9.802;2023-08-12T14:05:16;6.10;;;1.80;;
3779;SDS011;1905;52.482;9.802;2023-08-12T14:07:45;6.60;;;2.20;;
3779;SDS011;1905;52.482;9.802;2023-08-12T14:10:12;6.50;;;2.30;;
3779;SDS011;1905;52.482;9.802;2023-08-12T14:12:41;6.33;;;1.93;;
3779;SDS011;1905;52.482;9.802;2023-08-12T14:15:09;7.20;;;2.23;;
3779;SDS011;1905;52.482;9.802;2023-08-12T14:17:41;6.70;;;2.07;;
3779;SDS011;1905;52.482;9.802;2023-08-12T14:20:12;6.00;;;1.60;;
3779;SDS011;1905;52.482;9.802;2023-08-12T14:22:41;5.87;;;1.57;;
3779;SDS011;1905;52.482;9.802;2023-08-12T14:25:10;7.07;;;1.90;;
3779;SDS011;1905;52.482;9.802;2023-08-12T14:27:38;7.37;;;1.63;;
3779;SDS011;1905;52.482;9.802;2023-08-12T14:30:09;6.30;;;1.80;;
3779;SDS011;1905;52.482;9.802;2023-08-12T14:32:38;5.80;;;1.50;;
3779;SDS011;1905;52.482;9.802;2023-08-12T14:35:07;6.27;;;1.87;;
3779;SDS011;1905;52.482;9.802;2023-08-12T14:37:35;6.77;;;1.60;;
3779;SDS011;1905;52.482;9.802;2023-08-12T14:40:03;6.87;;;1.70;;
3779;SDS011;1905;52.482;9.802;2023-08-12T14:42:31;6.20;;;1.70;;
3779;SDS011;1905;52.482;9.802;2023-08-12T14:45:00;7.30;;;2.30;;
3779;SDS011;1905;52.482;9.802;2023-08-12T14:47:29;6.90;;;2.00;;
3779;SDS011;1905;52.482;9.802;2023-08-12T14:49:57;5.80;;;1.80;;
3779;SDS011;1905;52.482;9.802;2023-08-12T14:52:25;6.10;;;1.67;;
3779;SDS011;1905;52.482;9.802;2023-08-12T14:54:52;6.07;;;1.80;;
3779;SDS011;1905;52.482;9.802;2023-08-12T14:57:21;11.20;;;1.97;;
3779;SDS011;1905;52.482;9.802;2023-08-12T14:59:48;8.40;;;3.33;;
3779;SDS011;1905;52.482;9.802;2023-08-12T15:02:19;7.73;;;3.57;;
3779;SDS011;1905;52.482;9.802;2023-08-12T15:04:50;8.63;;;2.10;;
3779;SDS011;1905;52.482;9.802;2023-08-12T15:07:19;6.97;;;2.53;;
3779;SDS011;1905;52.482;9.802;2023-08-12T15:09:48;8.77;;;2.63;;
3779;SDS011;1905;52.482;9.802;2023-08-12T15:12:18;8.33;;;2.40;;
3779;SDS011;1905;52.482;9.802;2023-08-12T15:14:46;6.87;;;2.40;;
3779;SDS011;1905;52.482;9.802;2023-08-12T15:17:14;7.10;;;2.20;;